Time;durP1;ratioP1;P1;durP2;ratioP2;P2;SDS_P1;SDS_P2;PMS_P1;PMS_P2;Temp;Humidity;BMP_temperature;BMP_pressure;BME280_temperature;BME280_humidity;BME280_pressure;Samples;Min_cycle;Max_cycle;Signal;HPM_P1;HPM_P2
2022/07/06 00:04:41;;;;;;;1.20;0.80;;;;;;;13.55;63.37;102599.53;10504221;28;20075;-70
2022/07/06 00:09:42;;;;;;;1.10;1.00;;;;;;;13.53;63.70;102607.00;10503191;28;20025;-70
2022/07/06 00:14:42;;;;;;;2.75;1.58;;;;;;;13.52;64.00;102608.03;10501357;28;20028;-71
2022/07/06 00:19:43;;;;;;;7.32;1.42;;;;;;;13.48;63.90;102604.81;10503753;28;20045;-70
2022/07/06 00:24:43;;;;;;;0.73;0.73;;;;;;;13.44;64.24;102600.75;10502607;28;20052;-70
2022/07/06 00:29:43;;;;;;;0.95;0.75;;;;;;;13.43;65.10;102596.31;10502536;28;20036;-70
2022/07/06 00:34:44;;;;;;;3.10;1.63;;;;;;;13.39;65.00;102590.38;10483445;28;20032;-71
2022/07/06 00:39:44;;;;;;;1.70;1.25;;;;;;;13.33;64.61;102587.50;10503025;28;20045;-70
2022/07/06 00:44:45;;;;;;;5.75;1.20;;;;;;;13.28;65.17;102596.22;10485764;28;20470;-70
2022/07/06 00:55:04;;;;;;;1.73;1.20;;;;;;;13.20;65.36;102597.03;10485755;28;20099;-70
2022/07/06 01:00:05;;;;;;;3.50;0.80;;;;;;;13.14;65.61;102599.59;10483480;28;20032;-70
2022/07/06 01:05:07;;;;;;;1.92;1.20;;;;;;;13.07;65.80;102585.84;10499618;28;20043;-71
2022/07/06 01:10:09;;;;;;;2.22;1.30;;;;;;;13.05;66.03;102587.91;10500002;28;20041;-71
2022/07/06 01:15:11;;;;;;;1.90;1.15;;;;;;;12.99;66.30;102597.59;10483663;28;20044;-70
2022/07/06 01:20:24;;;;;;;4.22;1.98;;;;;;;12.97;66.19;102596.91;10500058;28;20051;-71
2022/07/06 01:25:24;;;;;;;5.10;1.45;;;;;;;12.90;66.62;102592.34;10483567;28;20506;-70
2022/07/06 01:30:25;;;;;;;1.13;1.10;;;;;;;12.79;66.87;102590.78;10499971;28;20047;-70
2022/07/06 01:35:25;;;;;;;7.28;4.85;;;;;;;12.68;67.26;102583.84;10497834;28;20076;-70
2022/07/06 01:40:25;;;;;;;73.18;39.33;;;;;;;12.62;67.19;102584.53;10498391;28;20418;-70
2022/07/06 01:45:26;;;;;;;9.80;4.25;;;;;;;12.59;67.08;102578.59;10481697;28;20068;-71
2022/07/06 01:50:26;;;;;;;1.73;1.25;;;;;;;12.57;67.52;102584.19;10500532;28;20039;-70
2022/07/06 01:55:27;;;;;;;0.98;0.90;;;;;;;12.57;67.72;102576.03;10498927;28;20119;-70
2022/07/06 02:00:27;;;;;;;4.72;1.17;;;;;;;12.51;67.50;102577.56;10498012;28;20386;-70
2022/07/06 02:05:28;;;;;;;3.33;1.88;;;;;;;12.47;68.23;102581.63;10500074;28;20477;-70
2022/07/06 02:10:28;;;;;;;2.97;1.45;;;;;;;12.38;68.46;102566.38;10480093;28;20067;-70
2022/07/06 02:15:28;;;;;;;3.80;1.73;;;;;;;12.40;68.33;102580.59;10480283;28;20028;-70
2022/07/06 02:20:29;;;;;;;2.67;1.98;;;;;;;12.37;68.88;102593.69;10498404;28;20036;-73
2022/07/06 02:25:29;;;;;;;1.80;1.60;;;;;;;12.45;69.49;102594.53;10499637;28;20141;-70
2022/07/06 02:30:29;;;;;;;5.90;1.45;;;;;;;12.38;69.72;102570.91;10481532;28;20040;-70
2022/07/06 02:35:30;;;;;;;2.08;1.55;;;;;;;12.40;69.58;102582.47;10503891;28;20033;-70
2022/07/06 02:40:30;;;;;;;1.75;1.58;;;;;;;12.31;69.39;102582.47;10485626;28;20509;-70
2022/07/06 02:45:31;;;;;;;1.13;1.00;;;;;;;12.21;69.54;102576.34;10507677;28;20036;-70
2022/07/06 02:50:31;;;;;;;2.65;1.58;;;;;;;12.23;69.70;102596.03;10509731;28;20478;-70
2022/07/06 02:55:32;;;;;;;1.80;1.52;;;;;;;12.13;69.97;102581.78;10513438;28;20067;-71
2022/07/06 03:00:32;;;;;;;5.72;1.80;;;;;;;12.03;70.14;102583.78;10501320;28;20032;-72
2022/07/06 03:05:32;;;;;;;1.10;1.10;;;;;;;11.98;70.31;102580.72;10519316;28;20045;-70
2022/07/06 03:10:33;;;;;;;3.38;1.50;;;;;;;11.98;70.47;102589.69;10510502;28;20480;-70
2022/07/06 03:15:33;;;;;;;11.43;2.03;;;;;;;11.93;70.30;102580.34;10505846;28;20435;-70
2022/07/06 03:20:34;;;;;;;1.58;1.40;;;;;;;11.99;70.54;102590.53;10505526;28;20036;-71
2022/07/06 03:25:34;;;;;;;1.52;1.42;;;;;;;12.05;70.93;102589.88;10505981;28;20376;-71
2022/07/06 03:30:34;;;;;;;1.67;1.55;;;;;;;12.07;71.38;102594.13;10505215;28;20036;-71
2022/07/06 03:35:35;;;;;;;2.33;1.60;;;;;;;12.14;71.34;102594.31;10487885;28;20047;-70
2022/07/06 03:40:35;;;;;;;4.95;1.60;;;;;;;12.21;71.46;102598.06;10503852;28;20115;-70
2022/07/06 03:45:35;;;;;;;4.15;1.52;;;;;;;12.24;71.49;102586.03;10504362;28;20395;-70
2022/07/06 03:50:36;;;;;;;4.93;1.73;;;;;;;12.31;71.71;102590.59;10503958;28;20043;-70
2022/07/06 03:55:36;;;;;;;6.93;2.10;;;;;;;12.41;71.63;102587.75;10504765;28;20044;-71
2022/07/06 04:00:37;;;;;;;1.38;1.23;;;;;;;12.41;71.68;102576.91;10486211;28;20369;-70
2022/07/06 04:05:37;;;;;;;1.52;1.48;;;;;;;12.59;72.21;102584.88;10503960;28;20056;-70
2022/07/06 04:10:38;;;;;;;1.77;1.67;;;;;;;12.63;72.41;102569.91;10490637;28;20032;-70
2022/07/06 04:15:39;;;;;;;1.35;1.25;;;;;;;12.84;72.56;102585.72;10486137;28;20487;-71
2022/07/06 04:20:39;;;;;;;2.05;1.77;;;;;;;13.06;72.99;102586.03;10486166;28;20038;-71
2022/07/06 04:25:39;;;;;;;4.05;1.70;;;;;;;13.23;73.53;102577.66;10467969;28;20059;-71
2022/07/06 04:30:40;;;;;;;1.08;1.08;;;;;;;13.36;72.85;102585.28;10503888;28;20036;-71
2022/07/06 04:35:40;;;;;;;2.15;1.35;;;;;;;13.47;73.28;102574.03;10500430;28;20119;-69
2022/07/06 04:40:41;;;;;;;2.38;1.42;;;;;;;13.53;72.87;102569.78;10468803;28;20085;-66
2022/07/06 04:45:41;;;;;;;0.98;0.98;;;;;;;13.66;73.18;102583.66;10483897;28;20460;-67
2022/07/06 04:50:41;;;;;;;1.10;1.10;;;;;;;14.57;72.41;102584.81;10501437;28;20063;-67
2022/07/06 04:55:42;;;;;;;2.13;1.35;;;;;;;15.42;72.38;102582.81;10482597;28;20090;-67
2022/07/06 05:00:42;;;;;;;5.68;2.47;;;;;;;15.88;72.29;102588.06;10501499;28;20036;-70
2022/07/06 05:05:42;;;;;;;1.13;1.00;;;;;;;16.57;71.60;102590.28;10507807;28;20452;-68
2022/07/06 05:10:43;;;;;;;1.00;1.00;;;;;;;16.89;71.46;102589.75;10510285;28;20040;-68
2022/07/06 05:15:43;;;;;;;8.75;1.83;;;;;;;16.73;70.77;102598.22;10509179;28;20033;-67
2022/07/06 05:20:44;;;;;;;0.85;0.85;;;;;;;16.85;70.13;102607.59;10460809;28;20061;-72
2022/07/06 05:25:44;;;;;;;2.00;1.80;;;;;;;18.02;69.26;102600.53;10513501;28;20036;-73
2022/07/06 05:30:45;;;;;;;0.85;0.77;;;;;;;18.94;68.35;102604.50;10491190;28;20036;-72
2022/07/06 05:35:45;;;;;;;0.93;0.80;;;;;;;19.64;66.83;102599.31;10513164;28;20036;-71
2022/07/06 05:40:45;;;;;;;2.25;1.00;;;;;;;20.41;66.08;102590.03;10493975;28;20028;-72
2022/07/06 05:45:46;;;;;;;0.95;0.90;;;;;;;20.84;64.91;102594.00;10510398;28;20033;-72
2022/07/06 05:50:47;;;;;;;0.80;0.80;;;;;;;21.40;64.03;102592.19;10471987;28;20098;-73
2022/07/06 05:55:47;;;;;;;1.42;0.93;;;;;;;22.00;62.63;102592.31;10508151;28;20056;-71
2022/07/06 06:00:48;;;;;;;2.17;1.50;;;;;;;22.37;61.55;102593.09;10506689;28;20033;-70
2022/07/06 06:05:48;;;;;;;2.85;1.00;;;;;;;22.49;60.04;102582.94;10487626;28;20500;-71
2022/07/06 06:10:49;;;;;;;1.47;1.17;;;;;;;22.73;58.00;102585.72;10506522;28;20044;-71
2022/07/06 06:15:49;;;;;;;1.20;1.10;;;;;;;23.19;57.56;102593.19;10489295;28;20273;-71
2022/07/06 06:20:49;;;;;;;3.40;0.90;;;;;;;23.53;56.84;102584.28;10512449;28;20033;-73
2022/07/06 06:25:50;;;;;;;4.55;0.88;;;;;;;23.80;54.84;102587.34;10511807;28;20028;-71
2022/07/06 06:30:50;;;;;;;0.73;0.73;;;;;;;23.83;54.73;102597.94;10468084;28;20488;-71
2022/07/06 06:35:52;;;;;;;2.47;1.27;;;;;;;24.37;53.57;102592.88;10499174;28;20036;-71
2022/07/06 06:40:53;;;;;;;0.88;0.88;;;;;;;24.47;53.38;102592.25;10497717;28;20570;-72
2022/07/06 06:45:53;;;;;;;1.33;1.20;;;;;;;24.72;52.75;102586.31;10498856;28;20147;-71
2022/07/06 06:50:53;;;;;;;4.65;1.15;;;;;;;24.93;52.52;102595.81;10501167;28;20044;-72
2022/07/06 06:55:54;;;;;;;0.80;0.80;;;;;;;24.88;51.96;102591.00;10498049;28;20098;-73
2022/07/06 07:00:55;;;;;;;0.40;0.40;;;;;;;24.81;50.92;102602.25;10495410;28;20045;-72
2022/07/06 07:05:55;;;;;;;2.10;1.60;;;;;;;25.25;48.68;102593.28;10497777;28;20057;-71
2022/07/06 07:10:55;;;;;;;0.55;0.55;;;;;;;25.87;48.69;102597.72;10497065;28;20119;-71
2022/07/06 07:15:56;;;;;;;0.60;0.60;;;;;;;25.89;47.80;102598.28;10479059;28;20480;-71
2022/07/06 07:20:56;;;;;;;1.27;0.85;;;;;;;25.89;46.40;102587.19;10496958;28;20056;-71
2022/07/06 07:25:57;;;;;;;1.00;1.00;;;;;;;26.25;46.38;102593.13;10478887;28;20369;-72
2022/07/06 07:30:57;;;;;;;1.30;0.93;;;;;;;26.79;46.58;102593.09;10478733;28;20495;-72
2022/07/06 07:35:57;;;;;;;0.50;0.50;;;;;;;26.74;45.55;102591.13;10495525;28;20045;-72
2022/07/06 07:40:58;;;;;;;0.90;0.90;;;;;;;26.32;43.54;102593.75;10479096;28;20033;-71
2022/07/06 07:45:58;;;;;;;0.60;0.60;;;;;;;26.07;44.61;102583.22;10503764;28;20471;-71
2022/07/06 07:50:59;;;;;;;1.13;1.02;;;;;;;26.51;41.22;102581.19;10485325;28;20117;-72
2022/07/06 07:55:59;;;;;;;2.92;1.05;;;;;;;26.64;41.28;102577.13;10485351;28;20085;-72
2022/07/06 08:01:00;;;;;;;0.68;0.68;;;;;;;27.09;39.28;102557.16;10486705;28;20063;-71
2022/07/06 08:06:00;;;;;;;1.85;1.10;;;;;;;27.73;40.31;102556.09;10504451;28;20057;-71
2022/07/06 08:11:01;;;;;;;0.40;0.40;;;;;;;27.28;40.22;102548.38;10486363;28;20039;-72
2022/07/06 08:16:01;;;;;;;0.43;0.43;;;;;;;25.94;41.18;102565.03;10502283;28;20066;-72
2022/07/06 08:21:02;;;;;;;0.50;0.50;;;;;;;25.54;41.10;102563.44;10501783;28;20060;-71
2022/07/06 08:26:02;;;;;;;0.40;0.40;;;;;;;24.70;39.73;102564.41;10503151;28;20093;-71
2022/07/06 08:31:03;;;;;;;0.60;0.60;;;;;;;23.84;40.94;102561.72;10503255;28;20039;-71
2022/07/06 08:36:04;;;;;;;0.57;0.57;;;;;;;23.35;41.71;102561.22;10484252;28;20149;-72
2022/07/06 08:41:05;;;;;;;0.55;0.55;;;;;;;23.11;41.78;102565.09;10502066;28;20063;-71
2022/07/06 08:46:06;;;;;;;0.60;0.60;;;;;;;23.20;42.42;102560.91;10483885;28;20112;-71
2022/07/06 08:51:07;;;;;;;0.85;0.85;;;;;;;23.87;42.18;102563.16;10501350;28;20395;-72
2022/07/06 08:56:08;;;;;;;0.98;0.98;;;;;;;24.08;42.28;102573.53;10499954;28;20036;-71
2022/07/06 09:01:11;;;;;;;0.90;0.60;;;;;;;24.12;42.02;102565.56;10482466;28;20020;-71
2022/07/06 09:06:12;;;;;;;2.08;0.75;;;;;;;24.54;41.57;102568.03;10499755;28;20059;-72
2022/07/06 09:11:12;;;;;;;1.45;1.02;;;;;;;25.60;38.57;102564.34;10483908;28;20037;-72
2022/07/06 09:16:14;;;;;;;1.20;0.88;;;;;;;25.70;40.17;102568.06;10484155;28;20458;-71
2022/07/06 09:21:26;;;;;;;1.20;1.10;;;;;;;25.59;39.62;102571.81;10503828;28;20046;-70
2022/07/06 09:26:26;;;;;;;1.67;0.82;;;;;;;25.50;40.74;102576.16;10499702;28;20432;-71
2022/07/06 09:31:27;;;;;;;1.42;0.82;;;;;;;25.42;38.76;102582.13;10482026;28;20056;-71
2022/07/06 09:36:43;;;;;;;0.90;0.90;;;;;;;25.52;39.37;102590.56;10498072;28;20535;-70
2022/07/06 09:41:47;;;;;;;3.75;0.82;;;;;;;25.14;40.15;102600.59;10498128;28;20036;-70
2022/07/06 09:46:48;;;;;;;1.65;0.80;;;;;;;25.41;39.54;102597.94;10497284;28;20376;-72
2022/07/06 09:51:56;;;;;;;0.60;0.60;;;;;;;26.42;38.10;102591.09;10497980;28;20048;-71
2022/07/06 09:56:57;;;;;;;0.95;0.95;;;;;;;26.81;36.38;102583.38;10480990;28;20040;-71
2022/07/06 10:02:00;;;;;;;0.98;0.77;;;;;;;27.51;35.87;102580.50;10499587;28;20376;-71
2022/07/06 10:07:01;;;;;;;6.22;0.98;;;;;;;27.76;31.90;102572.25;10498656;28;20416;-71
2022/07/06 10:12:01;;;;;;;1.67;0.90;;;;;;;28.26;35.36;102581.03;10480815;28;20083;-72
2022/07/06 10:17:04;;;;;;;0.90;0.90;;;;;;;28.90;32.81;102562.94;10497987;28;20037;-72
2022/07/06 10:22:04;;;;;;;1.05;1.02;;;;;;;28.85;31.69;102569.38;10498392;28;20048;-72
2022/07/06 10:27:04;;;;;;;4.18;1.10;;;;;;;28.80;32.33;102560.16;10497123;28;20132;-72
2022/07/06 10:32:05;;;;;;;0.80;0.80;;;;;;;29.35;33.77;102556.41;10498614;28;20039;-71
2022/07/06 10:37:05;;;;;;;0.65;0.65;;;;;;;29.55;31.40;102554.69;10482661;28;20060;-72
2022/07/06 10:42:06;;;;;;;2.83;1.27;;;;;;;29.78;33.91;102553.19;10498134;28;20032;-71
2022/07/06 10:47:06;;;;;;;1.25;1.15;;;;;;;29.51;32.82;102557.19;10497151;28;20063;-72
2022/07/06 10:52:07;;;;;;;1.15;1.10;;;;;;;29.95;32.84;102550.03;10497657;28;20032;-71
2022/07/06 10:57:10;;;;;;;1.02;1.02;;;;;;;29.78;33.10;102550.41;10479119;28;20028;-71
2022/07/06 11:02:15;;;;;;;1.42;1.33;;;;;;;28.64;34.69;102545.41;10497235;28;20032;-73
2022/07/06 11:07:17;;;;;;;2.00;1.20;;;;;;;29.02;34.72;102523.63;10480728;28;20128;-71
2022/07/06 11:12:20;;;;;;;8.95;1.83;;;;;;;29.39;33.80;102524.06;10480644;28;20380;-71
2022/07/06 11:17:22;;;;;;;2.95;0.98;;;;;;;30.09;30.18;102526.75;10497750;28;20064;-70
2022/07/06 11:22:24;;;;;;;1.80;1.00;;;;;;;30.70;32.91;102508.63;10491213;28;20039;-73
2022/07/06 11:27:24;;;;;;;2.05;1.85;;;;;;;31.50;29.84;102504.38;10504385;28;20029;-70
2022/07/06 11:32:25;;;;;;;3.35;1.58;;;;;;;32.32;30.11;102503.94;10510835;28;20089;-73
2022/07/06 11:37:26;;;;;;;5.88;1.52;;;;;;;31.68;26.37;102488.72;10508664;28;20039;-75
2022/07/06 11:42:26;;;;;;;1.10;1.10;;;;;;;30.79;29.46;102490.13;10505196;28;20372;-72
2022/07/06 11:47:30;;;;;;;1.02;1.02;;;;;;;30.37;30.25;102490.75;10486462;28;20285;-72
2022/07/06 11:52:31;;;;;;;1.33;1.23;;;;;;;29.30;31.01;102500.66;10471171;28;20036;-71
2022/07/06 11:57:32;;;;;;;1.30;1.20;;;;;;;28.94;32.83;102500.75;10504555;28;20036;-71
2022/07/06 12:02:32;;;;;;;1.80;1.20;;;;;;;28.50;32.90;102501.38;10485795;28;20081;-72
2022/07/06 12:07:33;;;;;;;5.75;2.25;;;;;;;28.18;32.12;102507.22;10502316;28;20106;-72
2022/07/06 12:12:33;;;;;;;1.20;1.10;;;;;;;27.74;33.62;102509.63;10487156;28;20123;-71
2022/07/06 12:17:33;;;;;;;5.68;2.10;;;;;;;27.39;33.95;102504.78;10503934;28;20206;-72
2022/07/06 12:22:34;;;;;;;2.70;1.33;;;;;;;26.82;33.05;102498.06;10502600;28;20037;-71
2022/07/06 12:27:35;;;;;;;2.75;1.17;;;;;;;26.64;33.91;102502.97;10501900;28;20036;-72
2022/07/06 12:32:36;;;;;;;1.77;1.67;;;;;;;26.81;35.18;102485.28;10501645;28;20064;-72
2022/07/06 12:37:36;;;;;;;8.18;1.70;;;;;;;26.92;35.20;102488.94;10502113;28;20056;-70
2022/07/06 12:42:47;;;;;;;6.45;1.48;;;;;;;27.06;35.60;102471.50;10502023;28;20039;-71
2022/07/06 12:48:01;;;;;;;4.28;2.20;;;;;;;27.47;35.17;102473.63;10484486;28;20035;-72
2022/07/06 12:53:02;;;;;;;3.17;1.75;;;;;;;28.81;33.25;102462.28;10483370;28;20029;-71
2022/07/06 12:58:03;;;;;;;5.55;2.08;;;;;;;28.71;33.76;102468.72;10501367;28;20041;-71
2022/07/06 13:03:03;;;;;;;1.45;1.35;;;;;;;27.99;34.05;102478.22;10501972;28;20490;-73
2022/07/06 13:08:04;;;;;;;2.30;2.10;;;;;;;27.17;35.89;102469.63;10501091;28;20504;-72
2022/07/06 13:13:08;;;;;;;3.45;2.42;;;;;;;27.20;36.69;102471.88;10484075;28;20122;-71
2022/07/06 13:18:08;;;;;;;4.72;2.38;;;;;;;26.32;37.99;102477.94;10500522;28;20032;-71
2022/07/06 13:23:08;;;;;;;2.03;1.80;;;;;;;25.61;39.50;102477.22;10483042;28;20028;-71
2022/07/06 13:28:09;;;;;;;4.45;1.85;;;;;;;25.28;39.53;102474.34;10481735;28;20025;-70
2022/07/06 13:33:09;;;;;;;5.57;2.70;;;;;;;25.52;40.12;102462.97;10499569;28;20124;-71
2022/07/06 13:38:10;;;;;;;5.95;2.90;;;;;;;25.64;40.25;102472.00;10498930;28;20032;-72
2022/07/06 13:43:10;;;;;;;4.00;2.95;;;;;;;25.13;41.39;102465.00;10497668;28;20040;-71
2022/07/06 13:48:10;;;;;;;2.35;2.20;;;;;;;24.83;41.92;102461.53;10481059;28;20584;-71
2022/07/06 13:53:11;;;;;;;3.78;2.63;;;;;;;24.64;42.93;102459.31;10498124;28;20033;-72
2022/07/06 13:58:11;;;;;;;25.67;4.35;;;;;;;24.49;43.03;102468.22;10480765;28;20415;-71
2022/07/06 14:03:12;;;;;;;3.85;2.80;;;;;;;24.18;44.18;102456.63;10497889;28;20032;-71
2022/07/06 14:08:12;;;;;;;3.35;3.03;;;;;;;24.58;44.41;102437.06;10497578;28;20079;-71
2022/07/06 14:13:12;;;;;;;10.02;3.92;;;;;;;25.06;44.77;102435.53;10498957;28;20480;-71
2022/07/06 14:18:14;;;;;;;2.83;2.53;;;;;;;25.18;44.21;102440.97;10497512;28;20113;-72
2022/07/06 14:23:14;;;;;;;7.13;2.85;;;;;;;25.16;43.86;102440.38;10499685;28;20040;-73
2022/07/06 14:28:16;;;;;;;2.83;2.65;;;;;;;25.37;43.54;102443.41;10497923;28;20025;-71
2022/07/06 14:33:17;;;;;;;7.80;3.15;;;;;;;25.11;43.40;102432.00;10480172;28;20031;-71
2022/07/06 14:38:18;;;;;;;10.95;3.53;;;;;;;25.11;43.10;102420.91;10497748;28;20479;-72
2022/07/06 14:43:18;;;;;;;3.22;2.90;;;;;;;25.41;43.00;102417.66;10462464;28;20051;-72
2022/07/06 14:48:18;;;;;;;8.85;3.63;;;;;;;25.66;42.66;102406.00;10498796;28;20162;-71
2022/07/06 14:53:19;;;;;;;2.80;2.45;;;;;;;25.69;42.83;102399.09;10483009;28;20036;-72
2022/07/06 14:58:19;;;;;;;6.65;3.40;;;;;;;24.81;43.35;102405.53;10487833;28;20032;-72
2022/07/06 15:03:20;;;;;;;3.13;2.90;;;;;;;24.27;44.09;102401.69;10487860;28;20427;-72
2022/07/06 15:08:20;;;;;;;2.75;2.40;;;;;;;23.96;44.35;102409.47;10487341;28;20048;-71
2022/07/06 15:13:21;;;;;;;4.50;2.40;;;;;;;23.67;44.18;102408.66;10505361;28;20059;-71
2022/07/06 15:18:21;;;;;;;5.07;2.60;;;;;;;23.87;44.33;102414.59;10503954;28;20035;-71
2022/07/06 15:23:21;;;;;;;5.82;2.08;;;;;;;23.90;44.16;102413.28;10504602;28;20136;-71
2022/07/06 15:28:24;;;;;;;2.90;2.00;;;;;;;23.95;44.12;102405.03;10503676;28;20043;-70
2022/07/06 15:33:24;;;;;;;2.50;2.30;;;;;;;24.10;43.75;102396.16;10503626;28;20035;-72
2022/07/06 15:38:24;;;;;;;2.50;1.88;;;;;;;24.04;45.13;102388.88;10507080;28;20404;-71
2022/07/06 15:43:26;;;;;;;3.40;1.88;;;;;;;24.08;46.00;102392.78;10503407;28;20037;-72
2022/07/06 15:48:27;;;;;;;3.28;1.30;;;;;;;23.71;47.58;102398.84;10486996;28;20037;-72
2022/07/06 15:53:27;;;;;;;1.50;1.42;;;;;;;23.21;48.65;102396.75;10513391;28;20028;-71
2022/07/06 15:58:28;;;;;;;5.13;1.45;;;;;;;22.64;50.34;102378.13;10509560;28;20024;-71
2022/07/06 16:03:28;;;;;;;3.75;1.48;;;;;;;22.37;51.51;102374.19;10502645;28;20040;-71
2022/07/06 16:08:28;;;;;;;1.83;1.55;;;;;;;22.11;52.56;102356.97;10503052;28;20048;-71
2022/07/06 16:13:29;;;;;;;1.23;1.23;;;;;;;21.86;52.67;102351.72;10502064;28;20070;-71
2022/07/06 16:18:29;;;;;;;1.63;1.52;;;;;;;21.67;54.78;102361.16;10502693;28;20028;-71
2022/07/06 16:23:30;;;;;;;5.57;1.88;;;;;;;21.49;56.97;102353.78;10502964;28;20079;-71
2022/07/06 16:28:30;;;;;;;1.73;1.63;;;;;;;21.29;57.91;102348.53;10502531;28;20060;-71
2022/07/06 16:33:34;;;;;;;1.90;1.80;;;;;;;21.22;56.64;102342.25;10484739;28;20036;-71
2022/07/06 16:38:35;;;;;;;3.83;2.45;;;;;;;21.25;58.11;102330.78;10500439;28;20468;-71
2022/07/06 16:43:35;;;;;;;5.90;2.17;;;;;;;21.28;59.76;102333.06;10501045;28;20067;-71
2022/07/06 16:48:35;;;;;;;1.75;1.65;;;;;;;21.36;61.60;102319.00;10483657;28;20029;-71
2022/07/06 16:53:36;;;;;;;5.32;2.90;;;;;;;21.33;61.10;102311.16;10503323;28;20068;-71
2022/07/06 16:58:36;;;;;;;3.42;1.65;;;;;;;21.41;58.88;102315.53;10499977;28;20132;-71
2022/07/06 17:03:37;;;;;;;2.20;1.65;;;;;;;21.38;60.56;102304.97;10501537;28;20052;-71
2022/07/06 17:08:37;;;;;;;4.90;2.20;;;;;;;21.41;58.05;102307.25;10501716;28;20106;-72
2022/07/06 17:13:38;;;;;;;3.08;2.05;;;;;;;21.61;59.69;102301.44;10482024;28;20507;-71
2022/07/06 17:18:38;;;;;;;2.97;2.08;;;;;;;21.68;61.03;102302.16;10482410;28;20035;-71
2022/07/06 17:23:39;;;;;;;6.13;5.30;;;;;;;21.71;60.67;102285.97;10466241;28;20166;-71
2022/07/06 17:28:39;;;;;;;3.20;2.35;;;;;;;21.55;63.33;102297.72;10500564;28;20139;-71
2022/07/06 17:33:39;;;;;;;2.47;2.28;;;;;;;21.68;60.33;102293.91;10499359;28;20036;-71
2022/07/06 17:38:40;;;;;;;3.83;3.53;;;;;;;21.58;64.32;102292.56;10500822;28;20029;-71
2022/07/06 17:43:40;;;;;;;4.50;2.08;;;;;;;21.45;63.78;102280.91;10483592;28;20067;-71
2022/07/06 17:48:40;;;;;;;1.90;1.80;;;;;;;21.25;66.63;102289.44;10481419;28;20488;-71
2022/07/06 17:53:41;;;;;;;8.65;5.15;;;;;;;21.06;64.18;102285.94;10498590;28;20047;-71
2022/07/06 17:58:41;;;;;;;6.35;3.78;;;;;;;20.96;64.76;102275.47;10482121;28;20028;-71
2022/07/06 18:03:42;;;;;;;5.40;2.47;;;;;;;20.96;64.78;102274.63;10498831;28;20043;-71
2022/07/06 18:08:43;;;;;;;3.00;2.80;;;;;;;20.85;65.97;102265.25;10503574;28;20360;-72
2022/07/06 18:13:44;;;;;;;3.05;2.53;;;;;;;20.76;64.45;102277.66;10499777;28;20044;-71
2022/07/06 18:18:44;;;;;;;6.45;3.05;;;;;;;20.52;68.05;102272.03;10498412;28;20082;-70
2022/07/06 18:23:44;;;;;;;3.58;3.08;;;;;;;20.37;70.11;102268.81;10498944;28;20089;-71
2022/07/06 18:28:45;;;;;;;7.95;4.88;;;;;;;20.27;70.85;102257.50;10497190;28;20035;-71
2022/07/06 18:33:45;;;;;;;4.30;3.08;;;;;;;20.30;66.63;102255.13;10499131;28;20047;-71
2022/07/06 18:38:46;;;;;;;2.17;1.98;;;;;;;20.20;70.73;102257.56;10497844;28;20033;-71
2022/07/06 18:43:46;;;;;;;7.15;2.70;;;;;;;20.14;69.16;102258.50;10479899;28;20059;-69
2022/07/06 18:48:47;;;;;;;4.10;3.17;;;;;;;20.12;67.64;102246.84;10498178;28;20403;-70
2022/07/06 18:53:47;;;;;;;5.63;2.40;;;;;;;20.09;68.56;102248.16;10496751;28;20048;-68
2022/07/06 18:58:50;;;;;;;5.28;2.53;;;;;;;20.06;70.52;102232.09;10479464;28;20032;-69
2022/07/06 19:03:50;;;;;;;3.50;3.20;;;;;;;20.10;69.73;102235.25;10479245;28;20399;-69
2022/07/06 19:08:51;;;;;;;2.60;2.40;;;;;;;20.04;69.00;102231.50;10461382;28;20048;-71
2022/07/06 19:13:51;;;;;;;5.45;2.88;;;;;;;19.98;71.02;102232.44;10455754;28;20045;-69
2022/07/06 19:18:51;;;;;;;4.28;2.85;;;;;;;19.94;70.58;102222.94;10455259;28;20125;-67
2022/07/06 19:23:52;;;;;;;6.75;3.55;;;;;;;19.97;69.42;102217.84;10456088;28;20341;-71
2022/07/06 19:28:52;;;;;;;13.68;4.38;;;;;;;19.92;72.45;102208.59;10471318;28;20090;-68
2022/07/06 19:33:53;;;;;;;4.68;3.15;;;;;;;19.89;71.25;102212.63;10459941;28;20033;-70
2022/07/06 19:38:53;;;;;;;3.50;2.45;;;;;;;19.79;75.34;102211.47;10462611;28;20029;-67
2022/07/06 19:43:54;;;;;;;3.20;2.83;;;;;;;19.71;72.51;102198.84;10479622;28;20119;-69
2022/07/06 19:48:55;;;;;;;3.70;3.33;;;;;;;19.61;72.92;102198.50;10462884;28;20135;-70
2022/07/06 19:53:55;;;;;;;4.13;3.40;;;;;;;19.46;75.31;102201.59;10462123;28;20151;-69
2022/07/06 19:58:56;;;;;;;3.88;3.58;;;;;;;19.33;76.54;102188.81;10462030;28;20376;-69
2022/07/06 20:03:56;;;;;;;5.60;3.50;;;;;;;19.27;75.70;102200.69;10462032;28;20033;-68
2022/07/06 20:08:58;;;;;;;7.30;4.53;;;;;;;19.13;81.40;102201.88;10461030;28;20044;-65
2022/07/06 20:13:59;;;;;;;3.78;3.47;;;;;;;18.92;80.63;102192.97;10460582;28;20120;-65
2022/07/06 20:19:00;;;;;;;10.85;4.68;;;;;;;18.80;78.72;102198.31;10461008;28;20437;-65
2022/07/06 20:24:00;;;;;;;7.00;5.03;;;;;;;18.64;82.20;102192.47;10460336;28;20123;-64
2022/07/06 20:29:00;;;;;;;13.75;5.40;;;;;;;18.52;85.54;102200.53;10443449;28;20032;-65
2022/07/06 20:34:01;;;;;;;4.78;4.38;;;;;;;18.50;84.28;102200.75;10460652;28;20033;-65
2022/07/06 20:39:01;;;;;;;13.95;4.93;;;;;;;18.59;83.33;102184.88;10463852;28;20103;-65
2022/07/06 20:44:02;;;;;;;8.32;4.93;;;;;;;18.64;85.38;102179.59;10459643;28;20111;-65
2022/07/06 20:49:02;;;;;;;4.75;3.83;;;;;;;18.68;87.52;102174.50;10442607;28;20063;-65
2022/07/06 20:54:03;;;;;;;4.65;4.25;;;;;;;18.69;87.70;102163.28;10462312;28;20029;-64
2022/07/06 20:59:03;;;;;;;4.47;3.70;;;;;;;18.60;87.72;102159.13;10458752;28;20033;-65
2022/07/06 21:04:03;;;;;;;3.90;3.58;;;;;;;18.51;86.07;102172.28;10458921;28;20059;-70
2022/07/06 21:09:04;;;;;;;6.85;3.42;;;;;;;18.38;87.17;102164.13;10499130;28;20045;-71
2022/07/06 21:14:04;;;;;;;5.47;3.42;;;;;;;18.26;87.64;102155.72;10499865;28;20123;-69
2022/07/06 21:19:05;;;;;;;4.85;2.83;;;;;;;18.28;86.75;102156.38;10501001;28;20032;-69
2022/07/06 21:24:05;;;;;;;2.70;2.50;;;;;;;18.36;86.07;102158.84;10501568;28;20360;-71
2022/07/06 21:29:06;;;;;;;6.78;2.53;;;;;;;18.47;85.64;102148.22;10501098;28;20082;-69
2022/07/06 21:34:06;;;;;;;2.22;2.03;;;;;;;18.55;86.10;102150.72;10482364;28;20463;-69
2022/07/06 21:39:07;;;;;;;6.88;3.17;;;;;;;18.60;85.24;102142.66;10482123;28;20025;-70
2022/07/06 21:44:08;;;;;;;7.18;3.17;;;;;;;18.58;85.65;102134.66;10482520;28;20029;-70
2022/07/06 21:49:08;;;;;;;3.67;3.38;;;;;;;18.63;86.19;102136.72;10481962;28;20360;-70
2022/07/06 21:54:08;;;;;;;9.18;2.15;;;;;;;18.80;89.04;102123.38;10501638;28;20044;-69
2022/07/06 21:59:09;;;;;;;4.37;3.13;;;;;;;18.99;85.90;102116.88;10500355;28;20085;-70
2022/07/06 22:04:09;;;;;;;3.47;2.30;;;;;;;19.12;85.59;102115.09;10499745;28;20277;-70
2022/07/06 22:09:10;;;;;;;5.03;2.70;;;;;;;19.26;84.25;102120.22;10456872;28;20435;-70
2022/07/06 22:14:10;;;;;;;3.17;2.50;;;;;;;19.33;84.85;102108.31;10457522;28;20033;-70
2022/07/06 22:19:11;;;;;;;5.57;3.00;;;;;;;19.37;84.33;102113.16;10458166;28;20047;-70
2022/07/06 22:24:11;;;;;;;6.35;2.40;;;;;;;19.45;83.74;102101.03;10457245;28;20375;-70
2022/07/06 22:29:12;;;;;;;6.93;2.03;;;;;;;19.52;82.86;102088.03;10473160;28;20036;-70
2022/07/06 22:34:13;;;;;;;2.25;2.05;;;;;;;19.57;85.46;102087.38;10457128;28;20033;-70
2022/07/06 22:39:13;;;;;;;2.05;1.95;;;;;;;19.65;83.11;102092.59;10459069;28;20080;-69
2022/07/06 22:44:14;;;;;;;3.67;1.80;;;;;;;19.70;83.20;102092.75;10472116;28;20039;-70
2022/07/06 22:49:14;;;;;;;4.28;2.10;;;;;;;19.72;85.69;102088.72;10484087;28;20123;-70
2022/07/06 22:54:15;;;;;;;2.38;2.17;;;;;;;19.74;84.12;102081.06;10476755;28;20028;-69
2022/07/06 22:59:15;;;;;;;1.58;1.48;;;;;;;19.80;84.33;102072.97;10473436;28;20025;-69
2022/07/06 23:04:16;;;;;;;2.42;2.00;;;;;;;19.79;83.27;102069.38;10456021;28;20089;-70
2022/07/06 23:09:16;;;;;;;3.63;2.22;;;;;;;19.82;83.64;102070.84;10501181;28;20049;-70